Time;durP1;ratioP1;P1;durP2;ratioP2;P2;SDS_P1;SDS_P2;PMS_P1;PMS_P2;Temp;Humidity;BMP_temperature;BMP_pressure;BME280_temperature;BME280_humidity;BME280_pressure;Samples;Min_cycle;Max_cycle;Signal;HPM_P1;HPM_P2
2023/12/26 00:00:40;;;;;;;1.63;1.20;;;10.40;1.00;;;;;;5011182;28;20544;-73
2023/12/26 00:03:06;;;;;;;3.40;1.70;;;10.40;1.00;;;;;;5020016;28;20174;-71
2023/12/26 00:05:35;;;;;;;2.20;1.40;;;10.40;1.00;;;;;;5013836;28;20270;-73
2023/12/26 00:08:03;;;;;;;4.70;1.23;;;10.40;1.00;;;;;;5010823;28;20425;-72
2023/12/26 00:10:30;;;;;;;2.37;1.30;;;10.40;1.00;;;;;;5017639;28;20511;-73
2023/12/26 00:12:55;;;;;;;2.20;1.43;;;10.40;1.00;;;;;;5010371;28;20516;-73
2023/12/26 00:15:21;;;;;;;1.70;1.10;;;10.40;1.00;;;;;;5010561;28;21061;-73
2023/12/26 00:17:46;;;;;;;3.13;1.40;;;10.40;1.00;;;;;;5016268;28;20201;-72
2023/12/26 00:20:12;;;;;;;1.40;1.30;;;10.40;1.00;;;;;;4999399;28;20205;-72
2023/12/26 00:22:37;;;;;;;2.17;1.57;;;10.40;1.00;;;;;;4991457;28;20178;-73
2023/12/26 00:25:03;;;;;;;2.33;1.37;;;10.40;1.00;;;;;;5010868;28;20545;-72
2023/12/26 00:27:29;;;;;;;4.57;1.20;;;10.30;1.00;;;;;;5011896;28;20191;-72
2023/12/26 00:29:54;;;;;;;1.73;1.30;;;10.40;1.00;;;;;;5007950;28;20202;-72
2023/12/26 00:32:20;;;;;;;2.07;1.20;;;10.40;1.00;;;;;;4991333;28;20589;-73
2023/12/26 00:34:46;;;;;;;1.90;1.20;;;10.40;1.00;;;;;;4990861;28;20186;-73
2023/12/26 00:37:11;;;;;;;1.57;1.40;;;10.40;1.00;;;;;;5022514;28;20182;-72
2023/12/26 00:39:37;;;;;;;3.17;1.40;;;10.40;1.00;;;;;;5022218;28;20714;-72
2023/12/26 00:42:02;;;;;;;1.83;1.23;;;10.40;1.00;;;;;;4996525;28;20253;-72
2023/12/26 00:44:28;;;;;;;1.87;1.30;;;10.40;1.00;;;;;;5018541;28;20190;-73
2023/12/26 00:46:54;;;;;;;3.03;1.40;;;10.40;1.00;;;;;;5011423;28;20191;-73
2023/12/26 00:49:19;;;;;;;2.83;1.60;;;10.40;1.00;;;;;;5021316;28;20202;-73
2023/12/26 00:51:45;;;;;;;1.83;1.30;;;10.40;1.00;;;;;;5011385;28;20204;-73
2023/12/26 00:54:10;;;;;;;3.93;1.77;;;10.30;1.00;;;;;;5023857;28;20185;-73
2023/12/26 00:56:36;;;;;;;1.70;1.40;;;10.30;1.00;;;;;;5029963;28;20182;-73
2023/12/26 00:59:01;;;;;;;3.00;1.60;;;10.40;1.00;;;;;;5032341;28;20205;-72
2023/12/26 01:01:27;;;;;;;1.90;1.40;;;10.30;1.00;;;;;;5019117;28;20210;-72
2023/12/26 01:03:52;;;;;;;2.40;1.60;;;10.30;1.00;;;;;;5012138;28;20261;-71
2023/12/26 01:06:18;;;;;;;1.87;1.47;;;10.30;1.00;;;;;;5018601;28;20186;-72
2023/12/26 01:08:43;;;;;;;5.20;2.90;;;10.20;1.00;;;;;;4995121;28;20294;-72
2023/12/26 01:11:09;;;;;;;2.57;1.40;;;10.30;1.00;;;;;;4994482;28;20631;-73
2023/12/26 01:13:34;;;;;;;3.10;1.53;;;10.30;1.00;;;;;;4995209;28;20186;-72
2023/12/26 01:16:04;;;;;;;2.00;1.40;;;10.30;1.00;;;;;;5007442;28;20177;-72
2023/12/26 01:18:30;;;;;;;2.87;1.30;;;10.30;1.00;;;;;;5012498;28;20553;-73
2023/12/26 01:20:56;;;;;;;1.33;1.10;;;10.30;1.00;;;;;;5019023;28;20842;-73
2023/12/26 01:23:21;;;;;;;3.50;1.37;;;10.30;1.00;;;;;;5001891;28;20429;-73
2023/12/26 01:25:47;;;;;;;1.60;1.30;;;10.40;1.00;;;;;;5019442;28;20197;-72
2023/12/26 01:28:13;;;;;;;2.40;1.30;;;10.40;1.00;;;;;;5023077;28;20699;-73
2023/12/26 01:30:40;;;;;;;1.87;1.30;;;10.40;1.00;;;;;;5040170;22;20229;-78
2023/12/26 01:33:06;;;;;;;1.60;1.30;;;10.40;1.00;;;;;;5030366;28;20197;-77
2023/12/26 01:35:31;;;;;;;2.00;1.20;;;10.40;1.00;;;;;;5013722;28;20428;-78
2023/12/26 01:37:57;;;;;;;4.57;1.47;;;10.40;1.00;;;;;;5031710;28;20725;-77
2023/12/26 01:40:23;;;;;;;1.40;1.10;;;10.50;1.00;;;;;;5026530;28;20205;-77
2023/12/26 01:42:48;;;;;;;2.03;1.10;;;10.50;1.00;;;;;;5025414;28;20228;-78
2023/12/26 01:45:14;;;;;;;10.10;2.07;;;10.50;1.00;;;;;;5031095;28;20298;-77
2023/12/26 01:47:40;;;;;;;3.57;1.30;;;10.50;1.00;;;;;;5012680;28;20636;-77
2023/12/26 01:50:08;;;;;;;1.50;1.10;;;10.60;1.00;;;;;;5029848;28;20224;-78
2023/12/26 01:52:35;;;;;;;1.30;1.00;;;10.60;1.00;;;;;;5025209;28;20488;-78
2023/12/26 01:55:01;;;;;;;3.53;1.00;;;10.70;1.00;;;;;;5030609;28;20448;-78
2023/12/26 01:57:28;;;;;;;2.20;1.37;;;10.70;1.00;;;;;;5031195;28;20478;-78
2023/12/26 01:59:54;;;;;;;3.53;1.33;;;10.80;1.00;;;;;;5029632;28;20573;-80
2023/12/26 02:02:22;;;;;;;1.73;1.10;;;10.80;1.00;;;;;;5026181;28;20502;-78
2023/12/26 02:04:48;;;;;;;2.17;1.37;;;10.80;1.00;;;;;;5010006;28;20224;-78
2023/12/26 02:07:13;;;;;;;2.10;1.17;;;10.80;1.00;;;;;;5024391;28;20421;-78
2023/12/26 02:09:39;;;;;;;1.40;1.20;;;10.70;1.00;;;;;;5031403;28;20249;-78
2023/12/26 02:12:05;;;;;;;1.73;1.20;;;10.70;1.00;;;;;;5013252;28;20178;-78
2023/12/26 02:14:31;;;;;;;2.27;1.30;;;10.70;1.00;;;;;;5013304;28;20444;-78
2023/12/26 02:17:01;;;;;;;1.53;1.20;;;10.70;1.00;;;;;;5024990;28;20215;-75
2023/12/26 02:19:26;;;;;;;3.40;1.60;;;10.70;1.00;;;;;;5012979;28;20222;-78
2023/12/26 02:21:52;;;;;;;3.53;1.30;;;10.70;1.00;;;;;;5013298;28;20474;-79
2023/12/26 02:24:17;;;;;;;2.00;1.40;;;10.70;1.00;;;;;;5030839;28;20205;-77
2023/12/26 02:26:43;;;;;;;5.73;1.30;;;10.70;1.00;;;;;;5029963;28;20265;-78
2023/12/26 02:29:10;;;;;;;6.93;1.43;;;10.70;1.00;;;;;;5024786;28;20175;-78
2023/12/26 02:31:38;;;;;;;4.90;1.63;;;10.70;1.00;;;;;;5030962;28;20436;-79
2023/12/26 02:34:04;;;;;;;4.07;2.17;;;10.70;1.00;;;;;;5030456;28;21519;-78
2023/12/26 02:36:29;;;;;;;2.00;1.40;;;10.80;1.00;;;;;;5012219;28;20512;-78
2023/12/26 02:38:55;;;;;;;3.40;1.50;;;10.70;1.00;;;;;;5030193;28;20420;-78
2023/12/26 02:41:20;;;;;;;4.33;1.67;;;10.70;1.00;;;;;;5030040;28;20236;-77
2023/12/26 02:43:46;;;;;;;5.10;1.93;;;10.80;1.00;;;;;;5009739;28;20193;-78
2023/12/26 02:46:12;;;;;;;2.17;1.57;;;10.80;1.00;;;;;;5025265;28;20187;-78
2023/12/26 02:48:37;;;;;;;3.57;1.50;;;9.80;1.00;;;;;;5030390;28;20271;-78
2023/12/26 02:51:03;;;;;;;5.23;1.60;;;10.80;1.00;;;;;;5030104;28;20209;-78
2023/12/26 02:53:29;;;;;;;2.40;1.47;;;10.80;1.00;;;;;;5028656;28;20189;-77
2023/12/26 02:55:54;;;;;;;5.10;1.90;;;10.80;1.00;;;;;;5029909;28;20190;-78
2023/12/26 02:58:21;;;;;;;3.67;1.30;;;10.80;1.00;;;;;;5012131;28;20528;-78
2023/12/26 03:00:47;;;;;;;4.50;1.67;;;10.80;1.00;;;;;;5030076;28;20256;-78
2023/12/26 03:03:13;;;;;;;3.50;1.50;;;10.90;1.00;;;;;;5004747;28;20457;-78
2023/12/26 03:05:38;;;;;;;3.80;1.70;;;10.80;1.00;;;;;;5029961;28;20498;-78
2023/12/26 03:08:04;;;;;;;3.43;2.37;;;10.80;1.00;;;;;;5012129;28;20177;-78
2023/12/26 03:10:30;;;;;;;2.70;1.30;;;10.90;1.00;;;;;;5026677;28;20225;-78
2023/12/26 03:12:55;;;;;;;2.70;1.40;;;10.80;1.00;;;;;;5030257;28;20432;-78
2023/12/26 03:15:21;;;;;;;6.03;1.87;;;10.90;1.00;;;;;;5028308;28;20198;-78
2023/12/26 03:17:46;;;;;;;4.13;1.50;;;10.90;1.00;;;;;;5029667;28;20535;-78
2023/12/26 03:20:12;;;;;;;2.23;1.50;;;10.90;1.00;;;;;;5029606;28;20206;-78
2023/12/26 03:22:41;;;;;;;5.60;2.10;;;10.90;1.00;;;;;;5011964;28;20182;-78
2023/12/26 03:25:07;;;;;;;3.87;1.70;;;10.90;1.00;;;;;;5029377;28;20188;-78
2023/12/26 03:27:33;;;;;;;6.60;2.23;;;10.90;1.00;;;;;;5025931;28;20425;-78
2023/12/26 03:29:58;;;;;;;3.93;1.63;;;11.00;1.00;;;;;;5029345;28;20475;-78
2023/12/26 03:32:24;;;;;;;6.13;1.70;;;11.00;1.00;;;;;;5029154;28;20520;-77
2023/12/26 03:34:49;;;;;;;9.47;1.67;;;11.00;1.00;;;;;;5029370;28;20250;-77
2023/12/26 03:37:15;;;;;;;4.60;1.77;;;11.00;1.00;;;;;;5029373;28;20185;-78
2023/12/26 03:39:41;;;;;;;3.60;1.67;;;11.00;1.00;;;;;;5029766;28;20220;-78
2023/12/26 03:42:07;;;;;;;10.17;1.60;;;11.00;1.00;;;;;;5029171;28;20216;-78
2023/12/26 03:44:32;;;;;;;3.70;1.57;;;11.00;1.00;;;;;;5023122;28;20181;-76
2023/12/26 03:46:58;;;;;;;7.37;1.70;;;11.00;1.00;;;;;;5025851;28;20424;-78
2023/12/26 03:49:23;;;;;;;3.63;1.80;;;11.00;1.00;;;;;;5011383;28;20213;-78
2023/12/26 03:51:49;;;;;;;3.70;1.50;;;11.00;1.00;;;;;;5029653;28;20239;-77
2023/12/26 03:54:15;;;;;;;6.73;1.50;;;11.00;1.00;;;;;;5028818;28;20216;-78
2023/12/26 03:56:40;;;;;;;3.80;1.40;;;11.00;1.00;;;;;;5029163;28;20189;-75
2023/12/26 03:59:07;;;;;;;5.03;1.93;;;11.00;1.00;;;;;;5011047;28;20194;-75
2023/12/26 04:01:33;;;;;;;4.13;1.50;;;11.00;1.00;;;;;;5029346;28;20201;-77
2023/12/26 04:03:58;;;;;;;5.80;2.07;;;11.00;1.00;;;;;;5028183;28;20803;-78
2023/12/26 04:06:24;;;;;;;4.30;1.67;;;10.90;1.00;;;;;;5028939;28;20652;-78
2023/12/26 04:08:49;;;;;;;5.90;2.30;;;10.90;1.00;;;;;;5028891;28;20213;-78
2023/12/26 04:11:15;;;;;;;5.17;2.07;;;10.90;1.00;;;;;;5030713;28;20704;-79
2023/12/26 04:13:40;;;;;;;7.23;1.97;;;10.80;1.00;;;;;;5033511;28;20185;-78
2023/12/26 04:16:06;;;;;;;4.97;1.73;;;10.80;1.00;;;;;;5015271;28;20958;-78
2023/12/26 04:18:33;;;;;;;3.40;1.37;;;10.80;1.00;;;;;;5025345;28;20181;-78
2023/12/26 04:20:58;;;;;;;5.30;1.67;;;10.80;1.00;;;;;;5033376;28;20731;-78
2023/12/26 04:23:24;;;;;;;5.00;2.00;;;10.80;1.00;;;;;;5015088;28;20424;-78
2023/12/26 04:25:49;;;;;;;6.00;1.83;;;10.70;1.00;;;;;;5032166;28;20178;-79
2023/12/26 04:28:15;;;;;;;7.43;1.60;;;10.70;1.00;;;;;;5015289;28;20271;-78
2023/12/26 04:30:40;;;;;;;5.70;2.00;;;10.70;1.00;;;;;;5032906;28;20236;-77
2023/12/26 04:33:07;;;;;;;6.70;2.10;;;10.70;1.00;;;;;;5033040;28;20265;-78
2023/12/26 04:35:33;;;;;;;4.40;2.67;;;10.60;1.00;;;;;;5032857;28;20185;-78
2023/12/26 04:37:59;;;;;;;5.97;1.97;;;10.60;1.00;;;;;;5033033;28;20428;-78
2023/12/26 04:40:24;;;;;;;4.50;2.23;;;10.60;1.00;;;;;;5032428;28;20996;-78
2023/12/26 04:42:50;;;;;;;3.67;1.80;;;10.60;1.00;;;;;;5027630;28;20656;-79
2023/12/26 04:45:15;;;;;;;7.13;3.57;;;10.50;1.00;;;;;;5008860;28;20199;-78
2023/12/26 04:47:41;;;;;;;10.63;1.80;;;10.50;1.00;;;;;;5032490;28;20188;-77
2023/12/26 04:50:07;;;;;;;4.80;1.80;;;10.50;1.00;;;;;;5032127;28;20214;-77
2023/12/26 04:52:32;;;;;;;4.60;2.10;;;10.50;1.00;;;;;;5032532;28;20272;-78
2023/12/26 04:54:58;;;;;;;6.83;1.90;;;10.50;1.00;;;;;;5032359;28;20268;-76
2023/12/26 04:57:23;;;;;;;6.23;1.80;;;10.40;1.00;;;;;;5032624;28;20186;-78
2023/12/26 04:59:49;;;;;;;5.70;1.97;;;10.50;1.00;;;;;;5013328;28;20598;-78
2023/12/26 05:02:14;;;;;;;2.30;1.50;;;10.50;1.00;;;;;;5028088;28;20206;-78
2023/12/26 05:04:40;;;;;;;3.93;1.57;;;10.40;1.00;;;;;;5031788;28;20182;-78
2023/12/26 05:07:07;;;;;;;4.73;1.90;;;10.50;1.00;;;;;;5032143;28;20269;-77
2023/12/26 05:09:32;;;;;;;6.17;1.53;;;10.40;1.00;;;;;;5032307;28;20304;-78
2023/12/26 05:11:59;;;;;;;2.50;1.47;;;10.40;1.00;;;;;;5014562;28;20512;-79
2023/12/26 05:14:24;;;;;;;4.23;1.80;;;10.40;1.00;;;;;;5032048;28;20227;-78
2023/12/26 05:16:50;;;;;;;8.77;1.80;;;10.30;1.00;;;;;;5029870;28;20420;-77
2023/12/26 05:19:17;;;;;;;4.17;1.70;;;10.40;1.00;;;;;;5013830;28;20241;-78
2023/12/26 05:21:42;;;;;;;6.73;1.63;;;10.30;1.00;;;;;;5031523;28;20486;-78
2023/12/26 05:24:08;;;;;;;4.00;1.50;;;10.30;1.00;;;;;;5031415;28;20417;-78
2023/12/26 05:26:43;;;;;;;2.70;1.57;;;10.30;1.00;;;;;;5031764;28;20321;-78
2023/12/26 05:29:09;;;;;;;3.93;2.00;;;10.30;1.00;;;;;;5031854;28;20176;-78
2023/12/26 05:31:35;;;;;;;4.27;1.70;;;10.30;1.00;;;;;;5031838;28;20865;-79
2023/12/26 05:34:03;;;;;;;2.80;1.70;;;10.30;1.00;;;;;;5013048;28;20531;-78
2023/12/26 05:36:30;;;;;;;4.10;1.73;;;10.20;1.00;;;;;;5013775;28;20276;-79
2023/12/26 05:38:56;;;;;;;5.90;1.57;;;10.30;1.00;;;;;;5031791;28;20436;-78
2023/12/26 05:41:21;;;;;;;6.57;1.70;;;10.30;1.00;;;;;;5031096;28;20463;-78
2023/12/26 05:43:47;;;;;;;6.37;2.00;;;10.40;1.00;;;;;;5031729;28;20277;-77
2023/12/26 05:46:12;;;;;;;6.13;1.90;;;10.40;1.00;;;;;;5031311;28;20604;-78
2023/12/26 05:48:41;;;;;;;3.03;1.60;;;10.40;1.00;;;;;;5031520;28;20178;-78
2023/12/26 05:51:07;;;;;;;4.57;1.90;;;10.40;1.00;;;;;;5028702;28;20217;-78
2023/12/26 05:53:33;;;;;;;6.83;1.70;;;10.40;1.00;;;;;;5031323;28;20420;-78
2023/12/26 05:55:58;;;;;;;3.37;1.60;;;10.50;1.00;;;;;;5031677;28;20520;-78
2023/12/26 05:58:25;;;;;;;6.13;1.90;;;10.50;1.00;;;;;;5013785;28;20660;-79
2023/12/26 06:00:51;;;;;;;4.90;1.80;;;10.50;1.00;;;;;;5031929;28;20204;-78
2023/12/26 06:03:16;;;;;;;7.60;1.60;;;10.50;1.00;;;;;;5031501;28;20424;-75
2023/12/26 06:05:42;;;;;;;3.20;1.60;;;10.50;1.00;;;;;;5030486;28;20425;-78
2023/12/26 06:08:08;;;;;;;3.63;1.70;;;10.50;1.00;;;;;;5027557;28;20181;-78
2023/12/26 06:10:33;;;;;;;3.40;1.83;;;10.50;1.00;;;;;;5031248;28;20209;-78
2023/12/26 06:12:59;;;;;;;4.50;1.83;;;10.60;1.00;;;;;;5031796;28;20277;-79
2023/12/26 06:15:24;;;;;;;6.07;2.47;;;10.60;1.00;;;;;;5028185;28;20260;-78
2023/12/26 06:17:50;;;;;;;5.67;1.60;;;10.60;1.00;;;;;;5031338;28;20178;-78
2023/12/26 06:20:16;;;;;;;4.77;2.00;;;10.60;1.00;;;;;;5031207;28;20198;-78
2023/12/26 06:22:41;;;;;;;3.47;2.00;;;10.60;1.00;;;;;;5027501;28;20203;-78
2023/12/26 06:25:07;;;;;;;3.53;1.87;;;10.60;1.00;;;;;;5025995;28;20444;-78
2023/12/26 06:27:33;;;;;;;5.57;1.90;;;10.60;1.00;;;;;;5013061;28;20687;-78
2023/12/26 06:29:59;;;;;;;5.10;1.87;;;10.60;1.00;;;;;;5030988;28;20340;-75
2023/12/26 06:32:25;;;;;;;6.27;2.00;;;10.60;1.00;;;;;;5030855;28;20239;-78
2023/12/26 06:34:51;;;;;;;3.73;1.60;;;10.60;1.00;;;;;;5030223;28;20185;-78
2023/12/26 06:37:16;;;;;;;6.90;2.63;;;10.60;1.00;;;;;;5030854;28;20428;-78
2023/12/26 06:39:43;;;;;;;5.23;2.20;;;10.60;1.00;;;;;;5011894;28;20208;-78
2023/12/26 06:42:10;;;;;;;4.03;1.80;;;10.60;1.00;;;;;;5029108;28;20540;-78
2023/12/26 06:44:36;;;;;;;3.70;1.80;;;10.60;1.00;;;;;;5030322;28;20514;-78
2023/12/26 06:47:01;;;;;;;8.10;1.80;;;10.60;1.00;;;;;;5030289;28;20938;-78
2023/12/26 06:49:26;;;;;;;3.40;1.83;;;10.70;1.00;;;;;;5029974;28;20210;-78
2023/12/26 06:51:52;;;;;;;6.50;2.10;;;10.60;1.00;;;;;;5012928;28;20652;-78
2023/12/26 06:54:17;;;;;;;3.63;1.87;;;10.60;1.00;;;;;;5030479;28;20264;-77
2023/12/26 06:56:43;;;;;;;5.97;2.17;;;10.70;1.00;;;;;;5029605;28;20189;-78
2023/12/26 06:59:08;;;;;;;4.60;1.87;;;10.70;1.00;;;;;;5030641;28;20240;-78
2023/12/26 07:01:34;;;;;;;5.40;1.83;;;10.70;1.00;;;;;;5029611;28;20210;-78
2023/12/26 07:04:00;;;;;;;6.73;1.90;;;10.80;1.00;;;;;;5029883;28;20186;-78
2023/12/26 07:06:27;;;;;;;5.23;1.77;;;10.80;1.00;;;;;;5029947;28;20261;-78
2023/12/26 07:08:52;;;;;;;4.70;1.60;;;10.80;1.00;;;;;;5030226;28;20467;-78
2023/12/26 07:11:18;;;;;;;7.67;1.80;;;10.80;1.00;;;;;;5030213;28;20535;-78
2023/12/26 07:13:43;;;;;;;5.47;1.73;;;10.90;1.00;;;;;;5010569;28;20189;-78
2023/12/26 07:16:09;;;;;;;5.20;1.80;;;10.90;1.00;;;;;;5029983;28;20181;-78
2023/12/26 07:18:35;;;;;;;8.07;2.40;;;10.90;1.00;;;;;;5029890;28;20186;-78
2023/12/26 07:21:00;;;;;;;4.10;1.70;;;10.90;1.00;;;;;;5030117;28;20220;-78
2023/12/26 07:23:26;;;;;;;4.73;1.70;;;10.90;1.00;;;;;;5021682;28;20202;-77
2023/12/26 07:25:51;;;;;;;2.43;1.40;;;10.90;1.00;;;;;;5028558;28;20186;-78
2023/12/26 07:28:17;;;;;;;4.03;1.93;;;10.90;1.00;;;;;;5030460;28;20204;-78
2023/12/26 07:30:43;;;;;;;5.90;1.87;;;10.90;1.00;;;;;;5075037;23;20267;-72
2023/12/26 07:33:09;;;;;;;7.77;1.80;;;10.90;1.00;;;;;;5039624;28;20173;-72
2023/12/26 07:35:38;;;;;;;6.33;1.80;;;10.90;1.00;;;;;;5038465;28;20428;-71
2023/12/26 07:38:04;;;;;;;5.47;2.00;;;10.90;1.00;;;;;;5040807;28;20177;-72
2023/12/26 07:40:31;;;;;;;5.20;1.70;;;10.90;1.00;;;;;;5031656;28;20985;-71
2023/12/26 07:42:57;;;;;;;6.77;2.17;;;10.90;1.00;;;;;;5026600;28;20953;-72
2023/12/26 07:45:24;;;;;;;6.83;2.07;;;10.90;1.00;;;;;;5022505;28;20464;-72
2023/12/26 07:47:53;;;;;;;6.63;1.70;;;10.90;1.00;;;;;;5030664;28;20783;-72
2023/12/26 07:50:19;;;;;;;5.00;1.60;;;10.90;1.00;;;;;;5049152;28;21130;-72
2023/12/26 07:52:44;;;;;;;2.80;1.63;;;10.90;1.00;;;;;;5023203;28;20464;-72
2023/12/26 07:55:11;;;;;;;4.17;1.33;;;10.90;1.00;;;;;;5048603;28;20180;-72
2023/12/26 07:57:37;;;;;;;6.90;2.30;;;10.90;1.00;;;;;;5039250;28;20552;-71
2023/12/26 08:00:03;;;;;;;2.20;1.33;;;10.90;1.00;;;;;;5042285;28;20526;-71
2023/12/26 08:03:47;;;;;;;5.00;1.50;;;10.90;1.00;;;;;;5065050;28;20464;-71
2023/12/26 08:06:13;;;;;;;4.90;2.00;;;11.00;1.00;;;;;;5056150;28;20184;-71
2023/12/26 08:08:38;;;;;;;4.20;2.42;;;11.10;1.00;;;;;;5045368;28;20950;-71
2023/12/26 08:11:04;;;;;;;5.60;1.83;;;11.10;1.00;;;;;;5060702;28;20224;-72
2023/12/26 08:13:29;;;;;;;7.10;1.70;;;11.00;1.00;;;;;;5065755;28;20187;-73
2023/12/26 08:15:55;;;;;;;5.93;1.67;;;11.00;1.00;;;;;;5066534;28;20185;-72
2023/12/26 08:18:21;;;;;;;6.30;2.00;;;11.00;1.00;;;;;;5064394;28;20275;-71
2023/12/26 08:20:47;;;;;;;6.70;2.30;;;11.00;1.00;;;;;;5066294;28;20254;-72
2023/12/26 08:23:12;;;;;;;5.37;1.80;;;11.00;1.00;;;;;;5065161;28;20454;-72
2023/12/26 08:25:38;;;;;;;7.03;2.50;;;11.10;1.00;;;;;;5064476;28;20177;-71
2023/12/26 08:28:04;;;;;;;5.40;2.10;;;11.10;1.00;;;;;;5065538;28;20181;-71
2023/12/26 08:30:30;;;;;;;7.20;2.67;;;11.10;1.00;;;;;;5065885;28;20203;-71
2023/12/26 08:32:55;;;;;;;4.93;1.90;;;11.10;1.00;;;;;;5066132;28;20438;-72
2023/12/26 08:35:21;;;;;;;4.03;2.63;;;11.10;1.00;;;;;;5064991;28;20192;-73
2023/12/26 08:37:46;;;;;;;8.63;2.23;;;11.30;1.00;;;;;;5065040;28;20718;-72
2023/12/26 08:40:12;;;;;;;5.30;2.00;;;11.60;1.00;;;;;;5066605;28;20713;-73
2023/12/26 08:42:37;;;;;;;6.73;2.13;;;14.20;1.00;;;;;;5065444;28;20208;-73
2023/12/26 08:45:03;;;;;;;7.57;2.00;;;12.10;1.00;;;;;;5062778;28;20176;-74
2023/12/26 08:47:29;;;;;;;6.73;1.73;;;12.00;1.00;;;;;;5065957;28;20176;-72
2023/12/26 08:49:56;;;;;;;4.93;1.80;;;11.70;1.00;;;;;;5065898;28;20825;-72
2023/12/26 08:52:23;;;;;;;7.97;2.00;;;11.60;1.00;;;;;;5065297;28;20188;-73
2023/12/26 08:54:49;;;;;;;7.00;1.70;;;11.40;1.00;;;;;;5064235;28;20435;-72
2023/12/26 08:57:14;;;;;;;6.40;1.60;;;11.30;1.00;;;;;;5056179;28;20963;-72
2023/12/26 08:59:39;;;;;;;6.30;1.90;;;11.20;1.00;;;;;;5059418;28;20262;-72
2023/12/26 09:02:05;;;;;;;6.40;2.17;;;11.10;1.00;;;;;;5064228;28;20283;-72
2023/12/26 09:04:31;;;;;;;17.07;6.63;;;11.10;1.00;;;;;;5064791;28;20185;-72
2023/12/26 09:06:56;;;;;;;6.40;2.90;;;11.10;1.00;;;;;;5062943;28;20184;-73
2023/12/26 09:09:23;;;;;;;5.67;2.40;;;11.10;1.00;;;;;;5065467;28;20260;-72
2023/12/26 09:11:48;;;;;;;6.10;2.97;;;11.40;1.00;;;;;;5059320;28;20177;-73
2023/12/26 09:14:14;;;;;;;4.90;2.60;;;11.00;1.00;;;;;;5055851;28;20522;-71
2023/12/26 09:16:40;;;;;;;6.43;2.70;;;11.00;1.00;;;;;;5048898;28;20615;-71
2023/12/26 09:19:06;;;;;;;7.13;3.00;;;11.00;1.00;;;;;;5051557;28;20243;-72
2023/12/26 09:21:31;;;;;;;4.70;2.40;;;11.00;1.00;;;;;;5051101;28;20220;-72
2023/12/26 09:23:57;;;;;;;6.57;3.17;;;10.90;1.00;;;;;;5048867;28;20174;-72
2023/12/26 09:26:24;;;;;;;9.17;2.90;;;11.00;1.00;;;;;;5047989;28;20618;-71
2023/12/26 09:28:49;;;;;;;6.47;2.43;;;11.00;1.00;;;;;;5038123;28;20177;-72
2023/12/26 09:31:15;;;;;;;6.97;3.40;;;11.10;1.00;;;;;;5050320;28;20447;-72
2023/12/26 09:33:40;;;;;;;5.03;2.20;;;11.00;1.00;;;;;;5044393;28;20268;-71
2023/12/26 09:36:06;;;;;;;12.27;3.00;;;10.90;1.00;;;;;;5050907;28;20184;-72
2023/12/26 09:38:32;;;;;;;7.77;3.20;;;11.00;1.00;;;;;;5051606;28;20274;-72
2023/12/26 09:40:58;;;;;;;4.97;2.17;;;11.00;1.00;;;;;;5049777;28;20252;-73
2023/12/26 09:43:23;;;;;;;5.53;2.67;;;11.00;1.00;;;;;;5041705;28;20247;-71
2023/12/26 09:45:49;;;;;;;6.60;3.00;;;11.10;1.00;;;;;;5046489;28;20256;-72
2023/12/26 09:48:15;;;;;;;6.33;2.93;;;11.10;1.00;;;;;;5048197;28;20204;-72
2023/12/26 09:50:42;;;;;;;6.13;3.20;;;11.00;1.00;;;;;;5047869;28;20613;-71
2023/12/26 09:53:08;;;;;;;6.23;2.53;;;10.90;1.00;;;;;;5049774;28;20502;-72
2023/12/26 09:55:34;;;;;;;4.70;2.17;;;10.80;1.00;;;;;;5052157;28;20451;-72
2023/12/26 09:58:01;;;;;;;4.50;2.37;;;10.90;1.00;;;;;;5048422;28;20443;-72
2023/12/26 10:00:29;;;;;;;158.30;49.50;;;10.80;1.00;;;;;;5050713;28;20599;-73
2023/12/26 10:02:55;;;;;;;45.80;13.93;;;11.20;1.00;;;;;;5049830;28;20463;-74
2023/12/26 10:05:21;;;;;;;18.27;7.03;;;11.40;1.00;;;;;;5050710;28;20420;-74
2023/12/26 10:07:47;;;;;;;30.53;10.17;;;11.50;1.00;;;;;;5043229;28;20454;-74
2023/12/26 10:10:19;;;;;;;15.60;5.30;;;11.60;1.00;;;;;;5039904;28;20986;-74
2023/12/26 10:12:48;;;;;;;9.87;3.57;;;11.70;1.00;;;;;;5041020;28;20623;-74
2023/12/26 10:15:14;;;;;;;9.63;2.83;;;11.80;1.00;;;;;;5047627;28;20439;-74
2023/12/26 10:17:43;;;;;;;6.80;2.00;;;11.60;1.00;;;;;;5046404;28;20423;-73
2023/12/26 10:20:15;;;;;;;7.77;2.50;;;11.50;1.00;;;;;;5049009;28;20497;-74
2023/12/26 10:22:44;;;;;;;4.07;2.23;;;11.30;1.00;;;;;;5047496;28;21050;-75
2023/12/26 10:25:11;;;;;;;8.30;2.00;;;11.30;1.00;;;;;;5044892;28;20428;-76
2023/12/26 10:27:38;;;;;;;6.97;2.47;;;11.40;1.00;;;;;;5044318;28;20484;-75
2023/12/26 10:30:04;;;;;;;9.70;2.33;;;11.40;1.00;;;;;;5047733;28;20497;-74
2023/12/26 10:32:31;;;;;;;6.60;2.20;;;11.40;1.00;;;;;;5049312;28;20419;-73
2023/12/26 10:35:10;;;;;;;7.67;2.77;;;11.70;1.00;;;;;;5048800;28;20454;-74
2023/12/26 10:37:36;;;;;;;2.90;1.60;;;11.90;1.00;;;;;;5046064;28;20429;-73
2023/12/26 10:40:04;;;;;;;4.47;1.80;;;11.80;1.00;;;;;;5049272;28;20475;-72
2023/12/26 10:42:31;;;;;;;5.13;1.93;;;11.90;1.00;;;;;;5058598;28;20205;-73
2023/12/26 10:45:00;;;;;;;5.43;2.40;;;11.80;1.00;;;;;;5058692;28;20432;-72
2023/12/26 10:47:28;;;;;;;2.87;1.60;;;11.80;1.00;;;;;;5054659;28;20430;-72
2023/12/26 10:49:59;;;;;;;6.80;2.03;;;11.70;1.00;;;;;;5048868;28;20522;-72
2023/12/26 10:52:26;;;;;;;6.53;2.80;;;11.50;1.00;;;;;;5048737;28;20793;-72
2023/12/26 10:54:54;;;;;;;5.67;1.80;;;11.50;1.00;;;;;;5048649;28;20427;-73
2023/12/26 10:57:21;;;;;;;7.33;2.00;;;11.50;1.00;;;;;;5048342;28;20432;-73
2023/12/26 10:59:46;;;;;;;5.30;2.50;;;11.70;1.00;;;;;;5046998;28;20462;-74
2023/12/26 11:02:12;;;;;;;5.10;2.20;;;11.80;1.00;;;;;;5049190;28;20455;-74
2023/12/26 11:04:38;;;;;;;6.27;2.00;;;11.90;1.00;;;;;;5049163;28;20712;-74
2023/12/26 11:07:03;;;;;;;6.03;2.40;;;12.30;1.00;;;;;;5046946;28;20264;-74
2023/12/26 11:09:29;;;;;;;5.60;2.47;;;12.60;1.00;;;;;;5047393;28;20206;-72
2023/12/26 11:11:55;;;;;;;4.13;2.00;;;12.40;1.00;;;;;;5047414;28;20193;-72
2023/12/26 11:14:20;;;;;;;3.43;1.73;;;12.10;1.00;;;;;;5049253;28;20254;-72
2023/12/26 11:16:46;;;;;;;3.20;2.33;;;11.80;1.00;;;;;;5048537;28;20193;-71
2023/12/26 11:19:12;;;;;;;4.30;1.87;;;11.50;1.00;;;;;;5049034;28;20608;-73
2023/12/26 11:21:38;;;;;;;5.70;2.50;;;11.50;1.00;;;;;;5047449;28;20479;-73
2023/12/26 11:24:05;;;;;;;6.07;2.10;;;11.50;1.00;;;;;;5049150;28;20177;-72
2023/12/26 11:26:32;;;;;;;3.20;2.00;;;11.60;1.00;;;;;;5048534;28;20444;-73
2023/12/26 11:29:00;;;;;;;8.30;2.80;;;11.50;1.00;;;;;;5046775;28;20432;-72
2023/12/26 11:31:25;;;;;;;4.20;2.10;;;11.60;1.00;;;;;;5048560;28;20447;-72
2023/12/26 11:33:51;;;;;;;3.80;1.90;;;11.60;1.00;;;;;;5048503;28;20430;-72
2023/12/26 11:36:16;;;;;;;6.60;2.40;;;11.60;1.00;;;;;;5048713;28;20173;-73
2023/12/26 11:38:42;;;;;;;6.30;2.20;;;11.60;1.00;;;;;;5051221;28;20212;-73
2023/12/26 11:41:10;;;;;;;6.20;2.10;;;11.70;1.00;;;;;;5047753;28;20228;-72
2023/12/26 11:43:36;;;;;;;4.33;1.80;;;11.50;1.00;;;;;;5049092;28;20207;-73
2023/12/26 11:46:01;;;;;;;4.23;2.50;;;11.30;1.00;;;;;;5048289;28;20485;-72
2023/12/26 11:48:27;;;;;;;4.27;2.13;;;11.10;1.00;;;;;;5048994;28;20416;-73
2023/12/26 11:50:52;;;;;;;5.27;2.10;;;11.00;1.00;;;;;;5048404;28;20224;-72
2023/12/26 11:53:18;;;;;;;3.83;1.80;;;11.10;1.00;;;;;;5048132;28;20184;-73
2023/12/26 11:55:44;;;;;;;3.97;2.00;;;11.00;1.00;;;;;;5048677;28;20294;-73
2023/12/26 11:58:09;;;;;;;3.90;1.93;;;11.10;1.00;;;;;;5048830;28;20732;-73
2023/12/26 12:00:35;;;;;;;5.80;2.30;;;11.10;1.00;;;;;;5048523;28;20212;-73
2023/12/26 12:03:00;;;;;;;5.43;1.90;;;11.10;1.00;;;;;;5047434;28;20583;-72
2023/12/26 12:05:26;;;;;;;3.80;2.03;;;11.00;1.00;;;;;;5047400;28;20260;-73
2023/12/26 12:08:13;;;;;;;4.57;2.83;;;11.00;1.00;;;;;;5047499;28;20640;-72
2023/12/26 12:11:07;;;;;;;2.10;1.70;;;10.90;1.00;;;;;;5048508;28;20494;-73
2023/12/26 12:13:32;;;;;;;5.43;2.53;;;10.90;1.00;;;;;;5043397;28;20567;-73
2023/12/26 12:15:58;;;;;;;5.40;2.50;;;11.00;1.00;;;;;;5047451;28;20493;-72
2023/12/26 12:18:24;;;;;;;4.63;2.10;;;11.10;1.00;;;;;;5048970;28;20184;-72
2023/12/26 12:20:49;;;;;;;2.83;2.10;;;11.10;1.00;;;;;;5046306;28;20212;-72
2023/12/26 12:23:15;;;;;;;7.83;3.60;;;11.10;1.00;;;;;;5046767;28;20205;-72
2023/12/26 12:25:40;;;;;;;6.27;2.20;;;11.10;1.00;;;;;;5048233;28;20607;-72
2023/12/26 12:28:09;;;;;;;4.30;3.00;;;11.00;1.00;;;;;;5047294;28;20205;-72
2023/12/26 12:30:35;;;;;;;7.37;2.20;;;10.90;1.00;;;;;;5046525;28;20657;-72
2023/12/26 12:33:19;;;;;;;6.10;3.33;;;10.80;1.00;;;;;;5047980;28;20543;-72
2023/12/26 12:35:48;;;;;;;13.03;4.33;;;10.70;1.00;;;;;;5047799;28;20209;-72
2023/12/26 12:38:15;;;;;;;6.60;2.60;;;10.80;1.00;;;;;;5048197;28;20416;-72
2023/12/26 12:40:46;;;;;;;4.17;2.60;;;10.90;1.00;;;;;;5048332;28;20453;-72
2023/12/26 12:43:12;;;;;;;5.73;2.87;;;10.80;1.00;;;;;;5047007;28;20459;-72
2023/12/26 12:45:38;;;;;;;9.33;2.40;;;10.90;1.00;;;;;;5047266;28;20745;-72
2023/12/26 12:48:03;;;;;;;3.03;2.17;;;10.80;1.00;;;;;;5047154;28;20503;-72
2023/12/26 12:50:30;;;;;;;3.87;1.93;;;10.90;1.00;;;;;;5051391;28;20205;-72
2023/12/26 12:52:56;;;;;;;11.33;5.37;;;10.90;1.00;;;;;;5050821;28;20536;-72